createdAt,value
2023-05-03T00:01:48.690Z,14.43
2023-05-03T00:04:20.748Z,18.60
2023-05-03T00:06:48.381Z,17.38
2023-05-03T00:09:16.218Z,17.30
2023-05-03T00:11:43.871Z,16.98
2023-05-03T00:14:11.060Z,15.75
2023-05-03T00:16:39.483Z,12.82
2023-05-03T00:19:07.804Z,14.77
2023-05-03T00:21:38.561Z,19.35
2023-05-03T00:24:06.098Z,12.90
2023-05-03T00:26:33.641Z,15.63
2023-05-03T00:29:01.446Z,15.27
2023-05-03T00:31:29.095Z,16.98
2023-05-03T00:33:56.249Z,13.73
2023-05-03T00:36:23.870Z,16.30
2023-05-03T00:38:51.341Z,15.13
2023-05-03T00:41:19.202Z,15.30
2023-05-03T00:43:46.864Z,14.63
2023-05-03T00:46:17.373Z,14.15
2023-05-03T00:48:48.400Z,14.93
2023-05-03T00:51:16.656Z,15.35
2023-05-03T00:53:44.077Z,14.38
2023-05-03T00:56:13.157Z,15.63
2023-05-03T00:58:41.263Z,12.30
2023-05-03T01:01:09.064Z,12.48
2023-05-03T01:03:41.475Z,13.88
2023-05-03T01:06:22.093Z,11.70
2023-05-03T01:09:03.243Z,16.08
2023-05-03T01:11:52.268Z,13.70
2023-05-03T01:14:55.077Z,12.63
2023-05-03T01:17:28.927Z,14.98
2023-05-03T01:20:02.214Z,16.95
2023-05-03T01:22:46.826Z,18.00
2023-05-03T01:25:15.998Z,14.55
2023-05-03T01:27:43.789Z,12.35
2023-05-03T01:30:12.838Z,10.45
2023-05-03T01:33:00.789Z,10.30
2023-05-03T01:36:00.264Z,10.23
2023-05-03T01:38:37.489Z,13.13
2023-05-03T01:41:09.532Z,10.45
2023-05-03T01:43:39.120Z,15.10
2023-05-03T01:46:07.661Z,13.10
2023-05-03T01:48:35.484Z,9.35
2023-05-03T01:51:03.535Z,12.10
2023-05-03T01:53:30.970Z,10.85
2023-05-03T01:55:58.291Z,11.25
2023-05-03T01:58:25.952Z,8.65
2023-05-03T02:00:56.345Z,8.43
2023-05-03T02:03:23.949Z,11.18
2023-05-03T02:05:51.139Z,8.70
2023-05-03T02:08:18.713Z,8.70
2023-05-03T02:10:46.009Z,8.70
2023-05-03T02:13:13.544Z,8.93
2023-05-03T02:15:41.543Z,6.97
2023-05-03T02:18:09.879Z,7.10
2023-05-03T02:20:38.248Z,7.85
2023-05-03T02:23:06.423Z,7.43
2023-05-03T02:25:33.669Z,9.80
2023-05-03T02:28:01.321Z,6.85
2023-05-03T02:30:28.921Z,13.55
2023-05-03T02:32:56.920Z,11.93
2023-05-03T02:35:24.213Z,11.80
2023-05-03T02:37:51.819Z,41.22
2023-05-03T02:40:19.070Z,13.10
2023-05-03T02:42:48.068Z,9.52
2023-05-03T02:45:22.281Z,8.02
2023-05-03T02:47:49.793Z,8.38
2023-05-03T02:50:17.155Z,11.20
2023-05-03T02:52:44.949Z,12.70
2023-05-03T02:55:12.333Z,10.52
2023-05-03T02:57:42.333Z,15.70
2023-05-03T03:00:15.499Z,16.08
2023-05-03T03:02:43.942Z,19.10
2023-05-03T03:05:12.093Z,11.10
2023-05-03T03:07:41.420Z,11.05
2023-05-03T03:10:09.327Z,9.13
2023-05-03T03:12:37.332Z,15.65
2023-05-03T03:15:07.846Z,14.20
2023-05-03T03:17:39.059Z,18.23
2023-05-03T03:20:12.998Z,15.77
2023-05-03T03:22:45.607Z,8.88
2023-05-03T03:25:13.100Z,7.90
2023-05-03T03:27:40.613Z,8.10
2023-05-03T03:30:09.604Z,9.98
2023-05-03T03:32:45.983Z,7.05
2023-05-03T03:35:19.814Z,9.00
2023-05-03T03:37:47.409Z,7.25
2023-05-03T03:40:14.964Z,9.05
2023-05-03T03:42:42.672Z,9.70
2023-05-03T03:45:10.516Z,12.43
2023-05-03T03:47:38.385Z,9.02
2023-05-03T03:50:06.569Z,9.90
2023-05-03T03:52:36.002Z,8.98
2023-05-03T03:55:03.853Z,10.55
2023-05-03T03:57:32.116Z,8.88
2023-05-03T04:00:00.068Z,9.82
2023-05-03T04:02:29.146Z,10.25
2023-05-03T04:04:56.557Z,10.68
2023-05-03T04:07:24.096Z,14.25
2023-05-03T04:09:51.307Z,15.18
2023-05-03T04:12:19.732Z,13.48
2023-05-03T04:14:47.458Z,13.95
2023-05-03T04:17:14.999Z,12.55
2023-05-03T04:19:42.339Z,14.07
2023-05-03T04:22:10.418Z,16.95
2023-05-03T04:24:39.798Z,14.68
2023-05-03T04:27:11.876Z,12.07
2023-05-03T04:29:39.708Z,14.20
2023-05-03T04:32:07.962Z,15.10
2023-05-03T04:34:36.753Z,12.00
2023-05-03T04:37:06.164Z,15.15
2023-05-03T04:39:33.830Z,16.88
2023-05-03T04:42:03.075Z,15.50
2023-05-03T04:44:30.533Z,13.43
2023-05-03T04:46:59.954Z,12.48
2023-05-03T04:49:28.878Z,17.20
2023-05-03T04:51:56.662Z,14.25
2023-05-03T04:54:25.519Z,13.07
2023-05-03T04:56:54.240Z,12.60
2023-05-03T04:59:21.514Z,12.40
2023-05-03T05:01:51.904Z,14.75
2023-05-03T05:04:19.387Z,10.40
2023-05-03T05:06:52.953Z,9.48
2023-05-03T05:09:29.233Z,11.07
2023-05-03T05:11:59.335Z,8.30
2023-05-03T05:14:34.112Z,9.45
2023-05-03T05:17:02.743Z,10.80
2023-05-03T05:19:29.999Z,11.73
2023-05-03T05:21:58.484Z,10.00
2023-05-03T05:24:32.837Z,7.23
2023-05-03T05:27:00.674Z,6.57
2023-05-03T05:29:28.081Z,7.85
2023-05-03T05:31:56.546Z,8.73
2023-05-03T05:34:24.531Z,8.27
2023-05-03T05:36:53.268Z,8.15
2023-05-03T05:39:23.669Z,7.80
2023-05-03T05:41:51.995Z,8.52
2023-05-03T05:44:19.346Z,8.52
2023-05-03T05:46:49.514Z,7.88
2023-05-03T05:49:19.085Z,7.05
2023-05-03T05:51:52.617Z,8.48
2023-05-03T05:54:20.467Z,8.55
2023-05-03T05:56:48.406Z,8.00
2023-05-03T05:59:17.543Z,13.75
2023-05-03T06:01:46.526Z,15.15
2023-05-03T06:04:17.683Z,10.75
2023-05-03T06:06:48.283Z,13.80
2023-05-03T06:09:24.790Z,13.52
2023-05-03T06:11:56.439Z,14.00
2023-05-03T06:14:29.225Z,12.50
2023-05-03T06:16:57.241Z,16.00
2023-05-03T06:19:24.868Z,11.15
2023-05-03T06:21:53.070Z,13.45
2023-05-03T06:24:22.127Z,11.75
2023-05-03T06:26:53.590Z,9.55
2023-05-03T06:29:21.448Z,8.90
2023-05-03T06:31:52.583Z,11.50
2023-05-03T06:34:24.568Z,16.15
2023-05-03T06:36:53.842Z,10.52
2023-05-03T06:39:21.232Z,7.43
2023-05-03T06:41:48.816Z,8.35
2023-05-03T06:44:17.988Z,10.43
2023-05-03T06:46:47.105Z,10.13
2023-05-03T06:49:15.705Z,9.05
2023-05-03T06:51:43.352Z,10.90
2023-05-03T06:54:10.795Z,10.10
2023-05-03T06:56:38.779Z,7.60
2023-05-03T06:59:06.262Z,9.50
2023-05-03T07:01:34.851Z,9.73
2023-05-03T07:04:02.483Z,9.57
2023-05-03T07:06:33.456Z,9.50
2023-05-03T07:09:05.551Z,10.77
2023-05-03T07:11:34.834Z,8.85
2023-05-03T07:14:03.655Z,12.55
2023-05-03T07:16:31.327Z,16.55
2023-05-03T07:18:58.770Z,9.43
2023-05-03T07:21:29.477Z,9.60
2023-05-03T07:23:56.888Z,12.02
2023-05-03T07:26:26.810Z,14.95
2023-05-03T07:28:54.430Z,8.68
2023-05-03T07:31:23.912Z,11.32
2023-05-03T07:33:51.602Z,10.18
2023-05-03T07:36:19.556Z,12.10
2023-05-03T07:38:47.200Z,15.30
2023-05-03T07:41:15.047Z,28.35
2023-05-03T07:43:42.580Z,8.18
2023-05-03T07:46:10.640Z,10.13
2023-05-03T07:48:38.479Z,8.60
2023-05-03T07:51:06.386Z,8.35
2023-05-03T07:53:35.838Z,6.43
2023-05-03T07:56:03.942Z,9.07
2023-05-03T07:58:40.211Z,7.85
2023-05-03T08:01:08.895Z,10.13
2023-05-03T08:03:36.753Z,13.05
2023-05-03T08:06:08.639Z,9.25
2023-05-03T08:08:36.977Z,14.30
2023-05-03T08:11:04.890Z,15.93
2023-05-03T08:13:32.610Z,11.15
2023-05-03T08:16:00.843Z,9.43
2023-05-03T08:18:28.729Z,9.38
2023-05-03T08:20:56.878Z,7.95
2023-05-03T08:23:26.172Z,12.27
2023-05-03T08:25:55.045Z,10.52
2023-05-03T08:28:22.699Z,8.95
2023-05-03T08:30:52.782Z,6.30
2023-05-03T08:33:20.417Z,7.32
2023-05-03T08:35:51.657Z,4.38
2023-05-03T08:38:21.089Z,5.63
2023-05-03T08:40:51.923Z,10.32
2023-05-03T08:43:22.181Z,6.40
2023-05-03T08:45:50.751Z,4.30
2023-05-03T08:48:21.562Z,6.90
2023-05-03T08:50:58.973Z,6.50
2023-05-03T08:53:27.761Z,13.75
2023-05-03T08:55:57.355Z,15.65
2023-05-03T08:58:27.856Z,16.02
2023-05-03T09:00:57.537Z,10.38
2023-05-03T09:03:27.051Z,9.05
2023-05-03T09:06:03.006Z,12.32
2023-05-03T09:08:44.084Z,10.73
2023-05-03T09:11:33.136Z,11.55
2023-05-03T09:14:13.366Z,8.15
2023-05-03T09:16:45.355Z,10.00
2023-05-03T09:19:15.649Z,13.50
2023-05-03T09:21:45.884Z,8.02
2023-05-03T09:24:23.188Z,6.70
2023-05-03T09:27:03.427Z,4.43
2023-05-03T09:29:37.162Z,6.45
2023-05-03T09:32:07.959Z,5.20
2023-05-03T09:34:36.176Z,5.03
2023-05-03T09:37:04.464Z,7.45
2023-05-03T09:39:33.208Z,4.30
2023-05-03T09:42:15.418Z,4.38
2023-05-03T09:44:53.467Z,4.82
2023-05-03T09:47:25.935Z,4.45
2023-05-03T09:49:54.052Z,4.63
2023-05-03T09:52:23.300Z,5.88
2023-05-03T09:54:54.342Z,4.25
2023-05-03T09:57:22.530Z,5.43
2023-05-03T09:59:51.010Z,7.55
2023-05-03T10:02:19.112Z,6.32
2023-05-03T10:04:54.248Z,6.18
2023-05-03T10:07:26.162Z,5.28
2023-05-03T10:09:57.207Z,8.18
2023-05-03T10:12:28.785Z,8.07
2023-05-03T10:15:02.235Z,7.70
2023-05-03T10:17:47.717Z,7.57
2023-05-03T10:20:36.850Z,6.00
2023-05-03T10:23:04.924Z,5.15
2023-05-03T10:25:36.027Z,7.38
2023-05-03T10:28:10.105Z,12.30
2023-05-03T10:30:39.819Z,7.20
2023-05-03T10:33:15.924Z,7.25
2023-05-03T10:38:21.122Z,88.07
2023-05-03T10:40:49.289Z,186.15
2023-05-03T10:43:30.412Z,43.42
2023-05-03T10:45:59.209Z,75.47
2023-05-03T10:48:28.910Z,211.20
2023-05-03T10:50:58.163Z,231.75
2023-05-03T10:53:35.612Z,106.35
2023-05-03T10:56:11.460Z,116.22
2023-05-03T10:58:44.670Z,120.55
2023-05-03T11:01:20.059Z,23.60
2023-05-03T11:09:58.265Z,7.13
2023-05-03T11:12:27.765Z,8.45
2023-05-03T11:14:57.349Z,16.35
2023-05-03T11:17:25.746Z,53.67
2023-05-03T11:19:54.212Z,11.32
2023-05-03T11:22:23.539Z,10.07
2023-05-03T11:24:52.344Z,37.33
2023-05-03T11:27:27.070Z,17.85
2023-05-03T11:29:59.958Z,12.17
2023-05-03T11:32:32.364Z,22.80
2023-05-03T11:35:05.080Z,9.25
2023-05-03T11:37:36.185Z,5.95
2023-05-03T11:40:07.439Z,4.72
2023-05-03T11:42:51.203Z,4.30
2023-05-03T11:45:25.826Z,3.15
2023-05-03T11:47:54.812Z,6.97
2023-05-03T11:50:52.133Z,42.53
2023-05-03T11:53:22.478Z,14.57
2023-05-03T11:56:03.251Z,8.07
2023-05-03T11:58:32.474Z,7.18
2023-05-03T12:01:00.675Z,8.32
2023-05-03T12:03:32.438Z,6.93
2023-05-03T12:06:04.246Z,4.70
2023-05-03T12:08:37.254Z,4.38
2023-05-03T12:13:40.679Z,8.77
2023-05-03T12:16:14.691Z,9.93
2023-05-03T12:18:51.857Z,9.23
2023-05-03T12:21:31.960Z,23.38
2023-05-03T12:24:01.682Z,8.18
2023-05-03T12:26:30.140Z,5.95
2023-05-03T12:28:58.080Z,7.85
2023-05-03T12:31:29.118Z,11.35
2023-05-03T12:36:32.563Z,10.00
2023-05-03T12:39:15.811Z,6.80
2023-05-03T12:42:06.441Z,7.78
2023-05-03T12:44:42.903Z,8.77
2023-05-03T12:47:16.868Z,12.68
2023-05-03T12:49:52.448Z,13.45
2023-05-03T12:54:55.971Z,7.95
2023-05-03T12:57:24.863Z,9.88
2023-05-03T12:59:58.377Z,8.13
2023-05-03T13:05:02.066Z,17.83
2023-05-03T13:07:32.682Z,13.25
2023-05-03T13:12:38.637Z,10.63
2023-05-03T13:15:07.271Z,9.75
2023-05-03T13:17:35.625Z,13.65
2023-05-03T13:20:08.579Z,14.23
2023-05-03T13:22:36.719Z,13.20
2023-05-03T13:25:10.346Z,14.65
2023-05-03T13:27:39.199Z,14.10
2023-05-03T13:30:09.026Z,10.50
2023-05-03T13:32:37.370Z,11.77
2023-05-03T13:35:05.861Z,19.92
2023-05-03T13:37:34.358Z,11.38
2023-05-03T13:40:02.179Z,8.30
2023-05-03T13:42:30.264Z,10.98
2023-05-03T13:44:57.650Z,10.77
2023-05-03T13:47:29.137Z,14.80
2023-05-03T13:50:01.077Z,14.15
2023-05-03T13:52:28.970Z,15.68
2023-05-03T13:54:57.891Z,25.65
2023-05-03T13:57:25.788Z,23.20
2023-05-03T13:59:53.288Z,16.42
2023-05-03T14:02:21.172Z,19.73
2023-05-03T14:04:48.752Z,18.27
2023-05-03T14:07:16.523Z,21.98
2023-05-03T14:09:44.432Z,17.13
2023-05-03T14:12:12.133Z,13.88
2023-05-03T14:14:40.230Z,16.45
2023-05-03T14:17:08.462Z,22.48
2023-05-03T14:19:36.893Z,13.40
2023-05-03T14:22:04.700Z,32.38
2023-05-03T14:24:32.376Z,25.95
2023-05-03T14:27:00.600Z,31.77
2023-05-03T14:29:28.004Z,15.30
2023-05-03T14:31:56.956Z,13.05
2023-05-03T14:34:24.464Z,11.93
2023-05-03T14:36:52.965Z,12.70
2023-05-03T14:39:22.679Z,14.38
2023-05-03T14:41:51.302Z,15.48
2023-05-03T14:44:18.855Z,13.18
2023-05-03T14:46:46.984Z,8.63
2023-05-03T14:49:14.580Z,12.77
2023-05-03T14:51:44.212Z,11.90
2023-05-03T14:54:12.632Z,12.93
2023-05-03T14:56:40.357Z,11.40
2023-05-03T14:59:07.860Z,37.78
2023-05-03T15:01:38.344Z,24.35
2023-05-03T15:04:08.059Z,18.40
2023-05-03T15:06:39.147Z,12.05
2023-05-03T15:09:08.505Z,10.32
2023-05-03T15:11:36.413Z,8.73
2023-05-03T15:14:03.899Z,16.70
2023-05-03T15:16:31.754Z,10.13
2023-05-03T15:19:00.725Z,13.77
2023-05-03T15:21:28.873Z,12.50
2023-05-03T15:23:56.804Z,19.02
2023-05-03T15:26:24.786Z,11.57
2023-05-03T15:28:52.355Z,10.57
2023-05-03T15:31:20.080Z,10.90
2023-05-03T15:33:47.608Z,7.03
2023-05-03T15:36:16.798Z,8.07
2023-05-03T15:38:44.367Z,10.43
2023-05-03T15:41:12.406Z,12.73
2023-05-03T15:43:39.720Z,13.57
2023-05-03T15:46:07.740Z,15.65
2023-05-03T15:48:35.131Z,11.20
2023-05-03T15:51:02.724Z,21.27
2023-05-03T15:53:30.258Z,38.33
2023-05-03T15:55:58.293Z,20.60
2023-05-03T15:58:27.790Z,15.85
2023-05-03T16:00:57.194Z,64.85
2023-05-03T16:03:24.641Z,34.97
2023-05-03T16:05:52.361Z,45.35
2023-05-03T16:08:22.354Z,24.90
2023-05-03T16:10:50.202Z,23.60
2023-05-03T16:13:17.714Z,37.65
2023-05-03T16:15:45.758Z,44.70
2023-05-03T16:18:13.126Z,28.95
2023-05-03T16:20:41.472Z,48.60
2023-05-03T16:23:09.398Z,37.08
2023-05-03T16:25:37.125Z,26.98
2023-05-03T16:28:04.680Z,26.83
2023-05-03T16:30:33.909Z,48.92
2023-05-03T16:33:03.256Z,14.70
2023-05-03T16:35:31.068Z,14.52
2023-05-03T16:38:00.522Z,15.35
2023-05-03T16:40:31.264Z,17.38
2023-05-03T16:43:01.317Z,11.43
2023-05-03T16:45:29.421Z,12.75
2023-05-03T16:47:57.294Z,7.43
2023-05-03T16:50:27.400Z,8.30
2023-05-03T16:52:58.291Z,44.00
2023-05-03T16:55:26.176Z,12.73
2023-05-03T16:57:53.641Z,9.57
2023-05-03T17:00:22.086Z,11.00
2023-05-03T17:02:49.930Z,10.45
2023-05-03T17:05:20.383Z,13.68
2023-05-03T17:07:48.116Z,13.18
2023-05-03T17:10:17.849Z,13.15
2023-05-03T17:12:48.063Z,12.95
2023-05-03T17:15:17.079Z,18.48
2023-05-03T17:17:45.113Z,16.27
2023-05-03T17:20:13.741Z,13.32
2023-05-03T17:22:41.706Z,18.55
2023-05-03T17:25:10.273Z,16.98
2023-05-03T17:27:38.683Z,15.95
2023-05-03T17:30:10.554Z,17.92
2023-05-03T17:32:38.637Z,24.08
2023-05-03T17:35:07.733Z,22.55
2023-05-03T17:37:36.036Z,23.38
2023-05-03T17:40:08.029Z,23.80
2023-05-03T17:42:37.264Z,20.10
2023-05-03T17:45:07.496Z,23.75
2023-05-03T17:47:35.189Z,22.38
2023-05-03T17:50:03.893Z,25.15
2023-05-03T17:52:32.266Z,28.63
2023-05-03T17:55:03.042Z,26.45
2023-05-03T17:57:31.526Z,31.27
2023-05-03T18:00:00.428Z,28.73
2023-05-03T18:02:28.722Z,24.92
2023-05-03T18:04:58.758Z,23.63
2023-05-03T18:07:27.430Z,30.13
2023-05-03T18:09:56.867Z,23.45
2023-05-03T18:12:27.229Z,21.80
2023-05-03T18:15:01.833Z,25.67
2023-05-03T18:17:30.610Z,18.63
2023-05-03T18:19:59.006Z,20.05
2023-05-03T18:22:27.884Z,28.50
2023-05-03T18:24:58.420Z,24.63
2023-05-03T18:27:26.817Z,21.70
2023-05-03T18:29:55.398Z,17.40
2023-05-03T18:32:23.950Z,19.08
2023-05-03T18:34:52.517Z,21.23
2023-05-03T18:37:22.376Z,25.45
2023-05-03T18:39:52.480Z,23.73
2023-05-03T18:42:20.611Z,31.45
2023-05-03T18:44:49.316Z,28.60
2023-05-03T18:47:22.225Z,23.27
2023-05-03T18:49:53.356Z,28.83
2023-05-03T18:52:22.184Z,32.67
2023-05-03T18:54:50.790Z,35.35
2023-05-03T18:57:20.332Z,29.27
2023-05-03T18:59:57.122Z,32.58
2023-05-03T19:02:31.317Z,30.30
2023-05-03T19:05:01.244Z,31.52
2023-05-03T19:07:29.854Z,34.53
2023-05-03T19:09:58.664Z,29.00
2023-05-03T19:12:26.431Z,26.27
2023-05-03T19:14:55.257Z,20.13
2023-05-03T19:17:23.469Z,26.65
2023-05-03T19:19:51.729Z,24.27
2023-05-03T19:22:19.245Z,25.00
2023-05-03T19:24:47.181Z,88.45
2023-05-03T19:27:14.732Z,52.85
2023-05-03T19:29:45.237Z,35.92
2023-05-03T19:32:12.744Z,72.30
2023-05-03T19:34:40.736Z,27.83
2023-05-03T19:37:08.162Z,33.97
2023-05-03T19:39:38.053Z,40.88
2023-05-03T19:42:05.555Z,66.05
2023-05-03T19:44:33.689Z,44.08
2023-05-03T19:47:01.154Z,30.58
2023-05-03T19:49:28.272Z,36.47
2023-05-03T19:51:56.322Z,68.10
2023-05-03T19:54:24.905Z,83.35
2023-05-03T19:56:52.822Z,56.38
2023-05-03T19:59:20.314Z,62.15
2023-05-03T20:01:48.303Z,55.28
2023-05-03T20:04:15.926Z,52.28
2023-05-03T20:06:43.785Z,42.17
2023-05-03T20:09:11.222Z,39.50
2023-05-03T20:11:39.081Z,40.78
2023-05-03T20:14:07.104Z,43.58
2023-05-03T20:16:39.235Z,47.45
2023-05-03T20:19:06.915Z,33.97
2023-05-03T20:21:34.816Z,46.60
2023-05-03T20:24:03.163Z,36.17
2023-05-03T20:26:30.942Z,43.28
2023-05-03T20:28:58.226Z,45.25
2023-05-03T20:31:26.077Z,43.33
2023-05-03T20:33:53.496Z,62.75
2023-05-03T20:36:21.255Z,47.25
2023-05-03T20:38:48.629Z,43.80
2023-05-03T20:41:18.458Z,37.97
2023-05-03T20:43:45.830Z,36.38
2023-05-03T20:46:13.629Z,33.53
2023-05-03T20:48:40.982Z,71.45
2023-05-03T20:51:08.873Z,94.50
2023-05-03T20:53:36.459Z,83.70
2023-05-03T20:56:06.604Z,79.50
2023-05-03T20:58:34.271Z,36.40
2023-05-03T21:01:04.530Z,36.65
2023-05-03T21:03:32.197Z,70.65
2023-05-03T21:06:00.100Z,68.07
2023-05-03T21:08:27.698Z,45.60
2023-05-03T21:10:55.458Z,45.30
2023-05-03T21:13:22.953Z,63.95
2023-05-03T21:15:51.148Z,62.85
2023-05-03T21:18:19.443Z,72.30
2023-05-03T21:20:47.284Z,80.35
2023-05-03T21:23:14.599Z,48.67
2023-05-03T21:25:42.169Z,38.83
2023-05-03T21:28:10.143Z,32.85
2023-05-03T21:30:37.707Z,37.30
2023-05-03T21:33:05.383Z,39.63
2023-05-03T21:35:33.004Z,36.08
2023-05-03T21:38:00.271Z,57.53
2023-05-03T21:40:27.841Z,39.97
2023-05-03T21:42:55.650Z,47.15
2023-05-03T21:45:23.728Z,45.67
2023-05-03T21:47:51.619Z,45.97
2023-05-03T21:50:19.723Z,53.65
2023-05-03T21:52:47.043Z,41.25
2023-05-03T21:55:14.670Z,39.47
2023-05-03T21:57:42.099Z,30.80
2023-05-03T22:00:15.570Z,34.13
2023-05-03T22:02:43.196Z,34.80
2023-05-03T22:05:10.804Z,29.98
2023-05-03T22:07:38.972Z,32.78
2023-05-03T22:10:07.110Z,29.27
2023-05-03T22:12:35.121Z,24.13
2023-05-03T22:15:03.055Z,27.08
2023-05-03T22:17:30.202Z,30.67
2023-05-03T22:19:58.231Z,25.45
2023-05-03T22:22:25.788Z,26.65
2023-05-03T22:24:53.460Z,26.73
2023-05-03T22:27:20.733Z,38.30
2023-05-03T22:29:48.249Z,35.85
2023-05-03T22:32:16.201Z,23.98
2023-05-03T22:34:44.712Z,22.65
2023-05-03T22:37:12.362Z,19.58
2023-05-03T22:39:39.951Z,24.42
2023-05-03T22:42:07.416Z,25.48
2023-05-03T22:44:34.917Z,27.27
2023-05-03T22:47:02.059Z,22.08
2023-05-03T22:49:30.005Z,19.20
2023-05-03T22:51:57.249Z,20.23
2023-05-03T22:54:25.389Z,20.38
2023-05-03T22:56:52.765Z,23.88
2023-05-03T22:59:20.514Z,21.65
2023-05-03T23:01:52.022Z,17.10
2023-05-03T23:04:20.004Z,21.77
2023-05-03T23:06:47.329Z,22.65
2023-05-03T23:09:15.009Z,22.50
2023-05-03T23:11:42.664Z,21.45
2023-05-03T23:14:10.375Z,25.00
2023-05-03T23:16:37.813Z,31.98
2023-05-03T23:19:05.439Z,30.60
2023-05-03T23:21:32.694Z,31.65
2023-05-03T23:24:00.323Z,32.53
2023-05-03T23:26:28.297Z,19.60
2023-05-03T23:28:56.327Z,26.70
2023-05-03T23:31:24.101Z,29.95
2023-05-03T23:33:52.155Z,28.70
2023-05-03T23:36:19.387Z,29.40
2023-05-03T23:38:47.041Z,26.20
2023-05-03T23:41:14.218Z,30.02
2023-05-03T23:43:41.855Z,26.20
2023-05-03T23:46:09.102Z,31.35
2023-05-03T23:48:36.753Z,34.90
2023-05-03T23:51:04.016Z,37.03
2023-05-03T23:53:31.455Z,27.60
2023-05-03T23:55:58.675Z,28.60
2023-05-03T23:58:26.231Z,31.00
